Ramah, New Mexico
Current Conditions -  °F | °C
As of 10:53 AM on Monday 22 Dec 2014 (Local Time) from KGUP Reporting Station
Clear Clear  
Wind Chill: 40°   Ceiling: Unl
Heat Index: 46°   Visibility: 10mi
Dew Point: 34°   Wind: 15mph
Humidity: 63%   Direction: 240°WSW
Pressure: 29.98"   Gusts: NA
Location:  35.13°N, 108.49°W
Report Text: KGUP 221753Z AUTO 24013KT 10SM CLR 08/01 A2998 RMK AO2 SLP116 T00780011 10078 21011 58007
Loading
Personal Weather Stations






























Interactive Weather Map New forecast layout! Learn more

10-Day Weather Forecast

Advertisements
Track Severe Weather on mobile